OAS698 SKBO-MROC
Flight info
| Callsign | OAS698 |
|---|---|
| Flight time | 2h 6m |
| Altitude | 32000 |
| Route | VASIL4U VASIL UL423 ISEBA CUARE4I |
| Aircraft | B738/M-SDE2E3FGHIRWXY/LB1 |
Departure
| Time | 2026-04-30 20:26 |
|---|---|
| Airport | El Dorado International Airport (SKBO) |
Arrival
| Time | 2026-04-30 22:32 |
|---|---|
| Airport | Juan Santamaría International Airport (MROC) |
| Time | Latitude | Longitude | Altitude | Speed | Heading |
|---|---|---|---|---|---|
| 2026-04-30 20:11 | 4.69768 | -74.13829 | 8365 ft | 0 kts | 215° |
| 2026-04-30 20:17 | 4.69768 | -74.13830 | 8392 ft | 1 kts | 221° |
| 2026-04-30 20:17 | 4.69770 | -74.13836 | 8365 ft | 1 kts | 295° |
| 2026-04-30 20:17 | 4.69778 | -74.13832 | 8365 ft | 2 kts | 35° |
| 2026-04-30 20:17 | 4.69798 | -74.13812 | 8365 ft | 6 kts | 51° |
| 2026-04-30 20:18 | 4.69832 | -74.13754 | 8365 ft | 13 kts | 48° |
| 2026-04-30 20:18 | 4.69921 | -74.13777 | 8365 ft | 19 kts | 308° |
| 2026-04-30 20:18 | 4.70011 | -74.13899 | 8365 ft | 23 kts | 309° |
| 2026-04-30 20:18 | 4.70108 | -74.14022 | 8365 ft | 22 kts | 308° |
| 2026-04-30 20:19 | 4.70198 | -74.14144 | 8365 ft | 21 kts | 305° |
| 2026-04-30 20:19 | 4.70256 | -74.14223 | 8365 ft | 21 kts | 307° |
| 2026-04-30 20:19 | 4.70427 | -74.14346 | 8365 ft | 26 kts | 331° |
| 2026-04-30 20:19 | 4.70547 | -74.14488 | 8365 ft | 27 kts | 306° |
| 2026-04-30 20:20 | 4.70655 | -74.14632 | 8365 ft | 25 kts | 309° |
| 2026-04-30 20:20 | 4.70758 | -74.14765 | 8365 ft | 23 kts | 306° |
| 2026-04-30 20:20 | 4.70853 | -74.14893 | 8365 ft | 23 kts | 308° |
| 2026-04-30 20:20 | 4.70947 | -74.15016 | 8365 ft | 22 kts | 307° |
| 2026-04-30 20:21 | 4.71038 | -74.15135 | 8365 ft | 21 kts | 307° |
| 2026-04-30 20:21 | 4.71125 | -74.15252 | 8366 ft | 21 kts | 307° |
| 2026-04-30 20:21 | 4.71206 | -74.15366 | 8366 ft | 20 kts | 288° |
| 2026-04-30 20:21 | 4.71119 | -74.15463 | 8365 ft | 19 kts | 216° |
| 2026-04-30 20:22 | 4.71012 | -74.15542 | 8365 ft | 19 kts | 216° |
| 2026-04-30 20:22 | 4.70902 | -74.15622 | 8365 ft | 22 kts | 216° |
| 2026-04-30 20:22 | 4.70765 | -74.15726 | 8365 ft | 27 kts | 218° |
| 2026-04-30 20:22 | 4.70592 | -74.15834 | 8365 ft | 31 kts | 207° |
| 2026-04-30 20:23 | 4.70625 | -74.15999 | 8365 ft | 29 kts | 310° |
| 2026-04-30 20:23 | 4.70743 | -74.16153 | 8365 ft | 27 kts | 305° |
| 2026-04-30 20:23 | 4.70855 | -74.16297 | 8365 ft | 25 kts | 307° |
| 2026-04-30 20:23 | 4.70957 | -74.16433 | 8365 ft | 24 kts | 306° |
| 2026-04-30 20:24 | 4.71054 | -74.16561 | 8365 ft | 23 kts | 307° |
| 2026-04-30 20:24 | 4.71148 | -74.16685 | 8365 ft | 22 kts | 307° |
| 2026-04-30 20:24 | 4.71171 | -74.16815 | 8364 ft | 21 kts | 225° |
| 2026-04-30 20:24 | 4.71046 | -74.16888 | 8362 ft | 21 kts | 175° |
| 2026-04-30 20:25 | 4.70785 | -74.16564 | 8364 ft | 67 kts | 127° |
| 2026-04-30 20:25 | 4.70380 | -74.16026 | 8363 ft | 124 kts | 128° |
| 2026-04-30 20:26 | 4.69050 | -74.14168 | 8753 ft | 184 kts | 131° |
| 2026-04-30 20:26 | 4.66755 | -74.13016 | 9889 ft | 203 kts | 179° |
| 2026-04-30 20:26 | 4.65351 | -74.13295 | 10381 ft | 211 kts | 201° |
| 2026-04-30 20:27 | 4.63230 | -74.15315 | 11389 ft | 218 kts | 243° |
| 2026-04-30 20:27 | 4.62710 | -74.18375 | 12126 ft | 229 kts | 273° |
| 2026-04-30 20:28 | 4.63434 | -74.21480 | 12913 ft | 233 kts | 290° |
| 2026-04-30 20:28 | 4.63929 | -74.24708 | 13210 ft | 250 kts | 242° |
| 2026-04-30 20:29 | 4.62400 | -74.28051 | 13466 ft | 280 kts | 244° |
| 2026-04-30 20:30 | 4.60122 | -74.33697 | 14202 ft | 303 kts | 258° |
| 2026-04-30 20:30 | 4.59599 | -74.40075 | 15239 ft | 308 kts | 266° |
| 2026-04-30 20:31 | 4.60441 | -74.46797 | 15639 ft | 352 kts | 279° |
| 2026-04-30 20:32 | 4.61807 | -74.54561 | 15593 ft | 395 kts | 279° |
| 2026-04-30 20:32 | 4.62699 | -74.59985 | 15595 ft | 392 kts | 278° |
| 2026-04-30 20:33 | 4.63134 | -74.62686 | 15588 ft | 392 kts | 279° |
| 2026-04-30 20:33 | 4.64000 | -74.68077 | 15572 ft | 391 kts | 278° |
| 2026-04-30 20:33 | 4.64433 | -74.70771 | 15571 ft | 391 kts | 278° |
| 2026-04-30 20:34 | 4.65151 | -74.75243 | 15570 ft | 391 kts | 278° |
| 2026-04-30 20:34 | 4.66017 | -74.80633 | 15600 ft | 392 kts | 278° |
| 2026-04-30 20:35 | 4.66511 | -74.83327 | 15612 ft | 397 kts | 287° |
| 2026-04-30 20:35 | 4.67765 | -74.85791 | 16073 ft | 399 kts | 308° |
| 2026-04-30 20:35 | 4.72013 | -74.89295 | 17169 ft | 399 kts | 327° |
| 2026-04-30 20:36 | 4.74345 | -74.90838 | 17612 ft | 403 kts | 328° |
| 2026-04-30 20:36 | 4.76700 | -74.92389 | 18054 ft | 407 kts | 328° |
| 2026-04-30 20:36 | 4.81452 | -74.95561 | 18831 ft | 414 kts | 327° |
| 2026-04-30 20:37 | 4.83844 | -74.97178 | 19281 ft | 415 kts | 327° |
| 2026-04-30 20:37 | 4.86246 | -74.98809 | 19671 ft | 419 kts | 327° |
| 2026-04-30 20:37 | 4.88634 | -75.00434 | 20035 ft | 422 kts | 327° |
| 2026-04-30 20:37 | 4.91073 | -75.02093 | 20391 ft | 425 kts | 327° |
| 2026-04-30 20:38 | 4.93518 | -75.03757 | 20887 ft | 424 kts | 327° |
| 2026-04-30 20:38 | 4.95967 | -75.05423 | 21281 ft | 426 kts | 327° |
| 2026-04-30 20:38 | 4.98421 | -75.07092 | 21762 ft | 428 kts | 327° |
| 2026-04-30 20:39 | 5.03371 | -75.10461 | 22449 ft | 433 kts | 327° |
| 2026-04-30 20:39 | 5.05872 | -75.12165 | 22788 ft | 435 kts | 327° |
| 2026-04-30 20:39 | 5.08389 | -75.13882 | 23141 ft | 438 kts | 327° |
| 2026-04-30 20:40 | 5.13448 | -75.17331 | 23794 ft | 442 kts | 327° |
| 2026-04-30 20:40 | 5.15963 | -75.19123 | 24018 ft | 445 kts | 320° |
| 2026-04-30 20:40 | 5.18149 | -75.21328 | 24371 ft | 446 kts | 312° |
| 2026-04-30 20:41 | 5.22181 | -75.26028 | 25048 ft | 447 kts | 310° |
| 2026-04-30 20:41 | 5.24203 | -75.28412 | 25298 ft | 449 kts | 310° |
| 2026-04-30 20:41 | 5.26233 | -75.30778 | 25759 ft | 445 kts | 310° |
| 2026-04-30 20:41 | 5.28269 | -75.33123 | 25995 ft | 448 kts | 310° |
| 2026-04-30 20:42 | 5.30342 | -75.35488 | 26170 ft | 452 kts | 311° |
| 2026-04-30 20:42 | 5.32426 | -75.37854 | 26392 ft | 453 kts | 310° |
| 2026-04-30 20:42 | 5.36604 | -75.42582 | 27037 ft | 452 kts | 310° |
| 2026-04-30 20:43 | 5.38698 | -75.44952 | 27259 ft | 453 kts | 310° |
| 2026-04-30 20:43 | 5.40793 | -75.47322 | 27515 ft | 455 kts | 310° |
| 2026-04-30 20:43 | 5.42865 | -75.49671 | 27728 ft | 456 kts | 310° |
| 2026-04-30 20:44 | 5.47088 | -75.54457 | 28161 ft | 458 kts | 310° |
| 2026-04-30 20:44 | 5.49205 | -75.56857 | 28418 ft | 459 kts | 310° |
| 2026-04-30 20:44 | 5.53454 | -75.61676 | 28922 ft | 461 kts | 310° |
| 2026-04-30 20:45 | 5.57400 | -75.66151 | 29327 ft | 463 kts | 309° |
| 2026-04-30 20:45 | 5.59541 | -75.68580 | 29546 ft | 464 kts | 309° |
| 2026-04-30 20:45 | 5.61677 | -75.71003 | 29770 ft | 464 kts | 309° |
| 2026-04-30 20:46 | 5.68090 | -75.78282 | 30271 ft | 468 kts | 309° |
| 2026-04-30 20:46 | 5.70218 | -75.80759 | 30472 ft | 467 kts | 305° |
| 2026-04-30 20:47 | 5.73436 | -75.86338 | 31062 ft | 458 kts | 293° |
| 2026-04-30 20:47 | 5.74780 | -75.89236 | 31388 ft | 456 kts | 292° |
| 2026-04-30 20:48 | 5.77441 | -75.94998 | 31871 ft | 453 kts | 292° |
| 2026-04-30 20:48 | 5.78775 | -75.97861 | 31890 ft | 452 kts | 293° |
| 2026-04-30 20:48 | 5.81443 | -76.03536 | 31917 ft | 453 kts | 293° |
| 2026-04-30 20:49 | 5.84153 | -76.09269 | 31938 ft | 455 kts | 293° |
| 2026-04-30 20:50 | 5.88247 | -76.17921 | 31926 ft | 457 kts | 293° |
| 2026-04-30 20:50 | 5.90979 | -76.23696 | 31924 ft | 458 kts | 293° |
| 2026-04-30 20:51 | 5.93697 | -76.29443 | 31914 ft | 457 kts | 293° |
| 2026-04-30 20:51 | 5.97785 | -76.38099 | 31882 ft | 455 kts | 293° |
| 2026-04-30 20:52 | 6.00493 | -76.43831 | 31887 ft | 452 kts | 293° |
| 2026-04-30 20:53 | 6.04507 | -76.52334 | 31857 ft | 450 kts | 293° |
| 2026-04-30 20:53 | 6.07192 | -76.58026 | 31853 ft | 450 kts | 293° |
| 2026-04-30 20:54 | 6.11217 | -76.66557 | 31821 ft | 450 kts | 293° |
| 2026-04-30 20:55 | 6.15243 | -76.75097 | 31834 ft | 451 kts | 293° |
| 2026-04-30 20:55 | 6.17928 | -76.80795 | 31816 ft | 451 kts | 293° |
| 2026-04-30 20:56 | 6.21946 | -76.89324 | 31804 ft | 452 kts | 293° |
| 2026-04-30 20:57 | 6.25987 | -76.97907 | 31821 ft | 454 kts | 293° |
| 2026-04-30 20:57 | 6.28700 | -77.03672 | 31807 ft | 456 kts | 293° |
| 2026-04-30 20:58 | 6.32761 | -77.12301 | 31791 ft | 451 kts | 293° |
| 2026-04-30 20:58 | 6.35435 | -77.17986 | 31802 ft | 449 kts | 293° |
| 2026-04-30 20:59 | 6.39424 | -77.26474 | 31787 ft | 449 kts | 293° |
| 2026-04-30 21:00 | 6.44767 | -77.37851 | 31789 ft | 451 kts | 293° |
| 2026-04-30 21:01 | 6.48791 | -77.46420 | 31778 ft | 453 kts | 293° |
| 2026-04-30 21:02 | 6.52824 | -77.55015 | 31777 ft | 453 kts | 293° |
| 2026-04-30 21:02 | 6.55518 | -77.60757 | 31782 ft | 454 kts | 293° |
| 2026-04-30 21:03 | 6.58214 | -77.66509 | 31783 ft | 454 kts | 293° |
| 2026-04-30 21:03 | 6.60909 | -77.72258 | 31775 ft | 454 kts | 293° |
| 2026-04-30 21:04 | 6.63587 | -77.77973 | 31773 ft | 454 kts | 293° |
| 2026-04-30 21:04 | 6.67626 | -77.86597 | 31774 ft | 454 kts | 293° |
| 2026-04-30 21:05 | 6.70314 | -77.92341 | 31789 ft | 453 kts | 293° |
| 2026-04-30 21:05 | 6.73000 | -77.98079 | 31773 ft | 452 kts | 293° |
| 2026-04-30 21:06 | 6.75674 | -78.03796 | 31769 ft | 450 kts | 293° |
| 2026-04-30 21:06 | 6.78333 | -78.09484 | 31772 ft | 448 kts | 293° |
| 2026-04-30 21:07 | 6.80965 | -78.15115 | 31774 ft | 446 kts | 293° |
| 2026-04-30 21:07 | 6.83604 | -78.20762 | 31775 ft | 445 kts | 293° |
| 2026-04-30 21:08 | 6.86608 | -78.26234 | 31781 ft | 446 kts | 298° |
| 2026-04-30 21:08 | 6.89842 | -78.31572 | 31776 ft | 447 kts | 299° |
| 2026-04-30 21:09 | 6.93062 | -78.36931 | 31776 ft | 447 kts | 298° |
| 2026-04-30 21:09 | 6.96232 | -78.42285 | 31776 ft | 448 kts | 298° |
| 2026-04-30 21:10 | 6.99418 | -78.47694 | 31776 ft | 449 kts | 298° |
| 2026-04-30 21:10 | 7.02603 | -78.53101 | 31776 ft | 450 kts | 298° |
| 2026-04-30 21:11 | 7.05797 | -78.58523 | 31773 ft | 451 kts | 298° |
| 2026-04-30 21:11 | 7.09004 | -78.63969 | 31773 ft | 451 kts | 298° |
| 2026-04-30 21:12 | 7.12207 | -78.69408 | 31775 ft | 452 kts | 298° |
| 2026-04-30 21:12 | 7.15388 | -78.74818 | 31772 ft | 452 kts | 298° |
| 2026-04-30 21:13 | 7.18591 | -78.80269 | 31772 ft | 452 kts | 297° |
| 2026-04-30 21:13 | 7.21792 | -78.85720 | 31772 ft | 452 kts | 297° |
| 2026-04-30 21:14 | 7.24992 | -78.91172 | 31775 ft | 451 kts | 297° |
| 2026-04-30 21:14 | 7.28189 | -78.96621 | 31775 ft | 451 kts | 297° |
| 2026-04-30 21:15 | 7.31383 | -79.02065 | 31774 ft | 451 kts | 297° |
| 2026-04-30 21:15 | 7.34554 | -79.07473 | 31777 ft | 450 kts | 297° |
| 2026-04-30 21:16 | 7.37737 | -79.12903 | 31774 ft | 450 kts | 297° |
| 2026-04-30 21:16 | 7.40926 | -79.18346 | 31775 ft | 450 kts | 297° |
| 2026-04-30 21:17 | 7.44106 | -79.23775 | 31775 ft | 450 kts | 297° |
| 2026-04-30 21:17 | 7.47286 | -79.29204 | 31780 ft | 449 kts | 297° |
| 2026-04-30 21:18 | 7.50443 | -79.34599 | 31773 ft | 449 kts | 297° |
| 2026-04-30 21:18 | 7.53618 | -79.40025 | 31775 ft | 449 kts | 297° |
| 2026-04-30 21:19 | 7.56792 | -79.45450 | 31773 ft | 449 kts | 297° |
| 2026-04-30 21:19 | 7.59962 | -79.50873 | 31776 ft | 449 kts | 297° |
| 2026-04-30 21:20 | 7.62600 | -79.55385 | 31775 ft | 449 kts | 297° |
| 2026-04-30 21:20 | 7.65774 | -79.60818 | 31778 ft | 449 kts | 297° |
| 2026-04-30 21:21 | 7.68947 | -79.66249 | 31778 ft | 449 kts | 297° |
| 2026-04-30 21:22 | 7.73689 | -79.74371 | 31780 ft | 450 kts | 297° |
| 2026-04-30 21:23 | 7.80049 | -79.85272 | 31779 ft | 451 kts | 297° |
| 2026-04-30 21:23 | 7.84820 | -79.93454 | 31778 ft | 451 kts | 297° |
| 2026-04-30 21:24 | 7.88000 | -79.98910 | 31778 ft | 452 kts | 297° |
| 2026-04-30 21:24 | 7.91172 | -80.04354 | 31779 ft | 452 kts | 297° |
| 2026-04-30 21:25 | 7.95957 | -80.12572 | 31782 ft | 453 kts | 297° |
| 2026-04-30 21:26 | 8.00742 | -80.20794 | 31778 ft | 453 kts | 297° |
| 2026-04-30 21:27 | 8.05528 | -80.29021 | 31782 ft | 453 kts | 297° |
| 2026-04-30 21:27 | 8.08702 | -80.34481 | 31782 ft | 454 kts | 297° |
| 2026-04-30 21:28 | 8.13511 | -80.42757 | 31779 ft | 454 kts | 297° |
| 2026-04-30 21:29 | 8.18296 | -80.50994 | 31786 ft | 453 kts | 297° |
| 2026-04-30 21:30 | 8.26251 | -80.64704 | 31795 ft | 454 kts | 297° |
| 2026-04-30 21:31 | 8.34232 | -80.78469 | 31801 ft | 454 kts | 297° |
| 2026-04-30 21:32 | 8.39015 | -80.86727 | 31810 ft | 454 kts | 297° |
| 2026-04-30 21:32 | 8.42205 | -80.92236 | 31811 ft | 454 kts | 297° |
| 2026-04-30 21:33 | 8.46973 | -81.00477 | 31824 ft | 455 kts | 297° |
| 2026-04-30 21:34 | 8.50174 | -81.06010 | 31831 ft | 456 kts | 297° |
| 2026-04-30 21:34 | 8.54975 | -81.14316 | 31845 ft | 456 kts | 297° |
| 2026-04-30 21:35 | 8.58171 | -81.19847 | 31846 ft | 456 kts | 297° |
| 2026-04-30 21:35 | 8.61371 | -81.25388 | 31836 ft | 457 kts | 297° |
| 2026-04-30 21:36 | 8.64571 | -81.30930 | 31833 ft | 456 kts | 297° |
| 2026-04-30 21:37 | 8.70966 | -81.42015 | 31853 ft | 456 kts | 297° |
| 2026-04-30 21:37 | 8.74141 | -81.47521 | 31859 ft | 455 kts | 297° |
| 2026-04-30 21:38 | 8.77326 | -81.53047 | 31866 ft | 455 kts | 297° |
| 2026-04-30 21:38 | 8.80517 | -81.58586 | 31856 ft | 456 kts | 297° |
| 2026-04-30 21:39 | 8.83710 | -81.64131 | 31858 ft | 456 kts | 297° |
| 2026-04-30 21:39 | 8.86908 | -81.69687 | 31841 ft | 457 kts | 297° |
| 2026-04-30 21:40 | 8.90088 | -81.75214 | 31846 ft | 457 kts | 297° |
| 2026-04-30 21:40 | 8.93286 | -81.80776 | 31847 ft | 458 kts | 297° |
| 2026-04-30 21:41 | 8.96489 | -81.86348 | 31846 ft | 458 kts | 297° |
| 2026-04-30 21:41 | 8.99693 | -81.91924 | 31847 ft | 458 kts | 297° |
| 2026-04-30 21:42 | 9.02899 | -81.97505 | 31840 ft | 458 kts | 297° |
| 2026-04-30 21:42 | 9.06101 | -82.03082 | 31838 ft | 458 kts | 297° |
| 2026-04-30 21:43 | 9.09278 | -82.08618 | 31838 ft | 458 kts | 297° |
| 2026-04-30 21:43 | 9.12480 | -82.14201 | 31849 ft | 458 kts | 297° |
| 2026-04-30 21:44 | 9.15671 | -82.19767 | 31843 ft | 457 kts | 297° |
| 2026-04-30 21:44 | 9.18861 | -82.25334 | 31842 ft | 457 kts | 297° |
| 2026-04-30 21:45 | 9.22052 | -82.30903 | 31842 ft | 457 kts | 297° |
| 2026-04-30 21:45 | 9.25239 | -82.36471 | 31840 ft | 457 kts | 297° |
| 2026-04-30 21:46 | 9.28410 | -82.42012 | 31846 ft | 456 kts | 297° |
| 2026-04-30 21:46 | 9.31589 | -82.47568 | 31840 ft | 456 kts | 297° |
| 2026-04-30 21:47 | 9.34752 | -82.53100 | 31841 ft | 456 kts | 297° |
| 2026-04-30 21:47 | 9.37930 | -82.58661 | 31851 ft | 456 kts | 297° |
| 2026-04-30 21:48 | 9.41107 | -82.64224 | 31854 ft | 456 kts | 297° |
| 2026-04-30 21:48 | 9.44282 | -82.69784 | 31842 ft | 452 kts | 297° |
| 2026-04-30 21:49 | 9.45832 | -82.72494 | 31846 ft | 435 kts | 297° |
| 2026-04-30 21:49 | 9.47319 | -82.75097 | 31831 ft | 420 kts | 297° |
| 2026-04-30 21:49 | 9.48755 | -82.77613 | 31829 ft | 406 kts | 297° |
| 2026-04-30 21:49 | 9.50145 | -82.80051 | 31827 ft | 393 kts | 296° |
| 2026-04-30 21:50 | 9.51488 | -82.82407 | 31831 ft | 380 kts | 296° |
| 2026-04-30 21:50 | 9.52790 | -82.84689 | 31826 ft | 368 kts | 296° |
| 2026-04-30 21:50 | 9.54907 | -82.89285 | 31871 ft | 362 kts | 285° |
| 2026-04-30 21:51 | 9.56437 | -82.94177 | 31874 ft | 366 kts | 284° |
| 2026-04-30 21:51 | 9.57976 | -82.99126 | 31870 ft | 370 kts | 284° |
| 2026-04-30 21:52 | 9.59551 | -83.04124 | 31896 ft | 373 kts | 284° |
| 2026-04-30 21:52 | 9.61140 | -83.09136 | 31882 ft | 374 kts | 284° |
| 2026-04-30 21:53 | 9.62729 | -83.14140 | 31861 ft | 371 kts | 284° |
| 2026-04-30 21:53 | 9.64293 | -83.19066 | 31888 ft | 367 kts | 284° |
| 2026-04-30 21:54 | 9.65849 | -83.23971 | 31879 ft | 364 kts | 284° |
| 2026-04-30 21:54 | 9.67388 | -83.28828 | 31899 ft | 361 kts | 284° |
| 2026-04-30 21:55 | 9.68921 | -83.33672 | 31926 ft | 361 kts | 284° |
| 2026-04-30 21:55 | 9.70463 | -83.38545 | 31920 ft | 364 kts | 284° |
| 2026-04-30 21:56 | 9.72012 | -83.43442 | 31932 ft | 366 kts | 284° |
| 2026-04-30 21:56 | 9.73577 | -83.48391 | 31963 ft | 370 kts | 284° |
| 2026-04-30 21:57 | 9.75032 | -83.53406 | 31923 ft | 369 kts | 272° |
| 2026-04-30 21:57 | 9.74791 | -83.58490 | 31938 ft | 362 kts | 263° |
| 2026-04-30 21:58 | 9.74372 | -83.63566 | 31940 ft | 362 kts | 263° |
| 2026-04-30 21:58 | 9.74006 | -83.68649 | 31939 ft | 360 kts | 264° |
| 2026-04-30 21:59 | 9.73645 | -83.73720 | 31946 ft | 360 kts | 263° |
| 2026-04-30 22:00 | 9.73099 | -83.81326 | 31927 ft | 359 kts | 263° |
| 2026-04-30 22:00 | 9.72541 | -83.88872 | 31928 ft | 357 kts | 263° |
| 2026-04-30 22:01 | 9.72153 | -83.93876 | 31908 ft | 355 kts | 263° |
| 2026-04-30 22:01 | 9.71769 | -83.98843 | 31917 ft | 356 kts | 263° |
| 2026-04-30 22:02 | 9.71379 | -84.03873 | 31920 ft | 359 kts | 263° |
| 2026-04-30 22:02 | 9.70987 | -84.08934 | 31877 ft | 361 kts | 263° |
| 2026-04-30 22:03 | 9.70593 | -84.14014 | 31879 ft | 363 kts | 263° |
| 2026-04-30 22:03 | 9.70198 | -84.19096 | 31877 ft | 363 kts | 263° |
| 2026-04-30 22:04 | 9.69799 | -84.24202 | 31848 ft | 363 kts | 263° |
| 2026-04-30 22:05 | 9.69123 | -84.31831 | 31853 ft | 360 kts | 261° |
| 2026-04-30 22:05 | 9.68553 | -84.36011 | 31836 ft | 359 kts | 259° |
| 2026-04-30 22:06 | 9.67706 | -84.41810 | 31820 ft | 356 kts | 259° |
| 2026-04-30 22:06 | 9.66771 | -84.48456 | 31829 ft | 355 kts | 260° |
| 2026-04-30 22:07 | 9.66090 | -84.53382 | 31817 ft | 355 kts | 260° |
| 2026-04-30 22:07 | 9.65418 | -84.58359 | 31808 ft | 357 kts | 260° |
| 2026-04-30 22:08 | 9.65014 | -84.63376 | 31768 ft | 360 kts | 278° |
| 2026-04-30 22:08 | 9.65636 | -84.65358 | 31538 ft | 358 kts | 294° |
| 2026-04-30 22:08 | 9.67012 | -84.67468 | 30959 ft | 364 kts | 309° |
| 2026-04-30 22:09 | 9.68938 | -84.69175 | 30321 ft | 373 kts | 324° |
| 2026-04-30 22:09 | 9.71305 | -84.70300 | 29791 ft | 378 kts | 342° |
| 2026-04-30 22:09 | 9.73914 | -84.70655 | 29299 ft | 379 kts | 1° |
| 2026-04-30 22:09 | 9.76452 | -84.70180 | 28870 ft | 376 kts | 20° |
| 2026-04-30 22:10 | 9.78725 | -84.68926 | 28415 ft | 371 kts | 39° |
| 2026-04-30 22:10 | 9.80508 | -84.67066 | 27941 ft | 367 kts | 55° |
| 2026-04-30 22:10 | 9.81749 | -84.64829 | 27455 ft | 361 kts | 72° |
| 2026-04-30 22:10 | 9.82426 | -84.62395 | 27023 ft | 355 kts | 79° |
| 2026-04-30 22:11 | 9.83446 | -84.57551 | 26226 ft | 347 kts | 80° |
| 2026-04-30 22:11 | 9.83931 | -84.55166 | 25845 ft | 344 kts | 80° |
| 2026-04-30 22:11 | 9.84419 | -84.52807 | 25468 ft | 340 kts | 79° |
| 2026-04-30 22:12 | 9.84909 | -84.50475 | 25130 ft | 334 kts | 79° |
| 2026-04-30 22:12 | 9.85393 | -84.48201 | 24736 ft | 327 kts | 79° |
| 2026-04-30 22:12 | 9.85868 | -84.45987 | 24535 ft | 311 kts | 79° |
| 2026-04-30 22:12 | 9.86326 | -84.43860 | 23997 ft | 310 kts | 79° |
| 2026-04-30 22:13 | 9.86786 | -84.41726 | 23455 ft | 310 kts | 78° |
| 2026-04-30 22:13 | 9.87241 | -84.39616 | 22812 ft | 310 kts | 78° |
| 2026-04-30 22:13 | 9.87708 | -84.37455 | 22186 ft | 309 kts | 78° |
| 2026-04-30 22:13 | 9.88168 | -84.35326 | 21564 ft | 308 kts | 79° |
| 2026-04-30 22:14 | 9.88620 | -84.33235 | 20950 ft | 307 kts | 79° |
| 2026-04-30 22:14 | 9.89082 | -84.31096 | 20336 ft | 305 kts | 78° |
| 2026-04-30 22:14 | 9.89529 | -84.29028 | 19745 ft | 304 kts | 79° |
| 2026-04-30 22:14 | 9.89980 | -84.26937 | 19161 ft | 303 kts | 79° |
| 2026-04-30 22:15 | 9.90430 | -84.24852 | 18583 ft | 301 kts | 78° |
| 2026-04-30 22:15 | 9.90876 | -84.22787 | 17989 ft | 300 kts | 78° |
| 2026-04-30 22:15 | 9.91320 | -84.20726 | 17362 ft | 298 kts | 79° |
| 2026-04-30 22:15 | 9.91756 | -84.18706 | 16751 ft | 286 kts | 78° |
| 2026-04-30 22:16 | 9.92172 | -84.16778 | 16054 ft | 275 kts | 78° |
| 2026-04-30 22:16 | 9.92577 | -84.14903 | 15303 ft | 269 kts | 79° |
| 2026-04-30 22:17 | 9.93741 | -84.09499 | 13059 ft | 254 kts | 79° |
| 2026-04-30 22:17 | 9.94113 | -84.07765 | 12275 ft | 250 kts | 78° |
| 2026-04-30 22:17 | 9.93850 | -84.04393 | 10753 ft | 239 kts | 95° |
| 2026-04-30 22:18 | 9.94253 | -84.02803 | 10036 ft | 232 kts | 55° |
| 2026-04-30 22:18 | 9.97086 | -84.01946 | 8475 ft | 224 kts | 351° |
| 2026-04-30 22:19 | 9.99887 | -84.03137 | 6914 ft | 221 kts | 317° |
| 2026-04-30 22:19 | 10.00764 | -84.04399 | 6211 ft | 220 kts | 295° |
| 2026-04-30 22:19 | 10.01156 | -84.07125 | 5716 ft | 172 kts | 275° |
| 2026-04-30 22:20 | 10.01206 | -84.08348 | 5240 ft | 176 kts | 276° |
| 2026-04-30 22:20 | 10.01313 | -84.10906 | 4329 ft | 182 kts | 272° |
| 2026-04-30 22:20 | 10.01328 | -84.12113 | 4163 ft | 172 kts | 272° |
| 2026-04-30 22:21 | 10.01320 | -84.13364 | 4281 ft | 175 kts | 271° |
| 2026-04-30 22:21 | 10.01364 | -84.14625 | 4082 ft | 185 kts | 274° |
| 2026-04-30 22:21 | 10.01262 | -84.15910 | 3884 ft | 185 kts | 249° |
| 2026-04-30 22:21 | 10.00785 | -84.17099 | 3646 ft | 181 kts | 252° |
| 2026-04-30 22:22 | 10.00380 | -84.18282 | 3416 ft | 174 kts | 248° |
| 2026-04-30 22:22 | 9.99942 | -84.19416 | 3189 ft | 176 kts | 248° |
| 2026-04-30 22:22 | 9.99505 | -84.20571 | 3038 ft | 173 kts | 247° |
| 2026-04-30 22:22 | 9.99096 | -84.21700 | 3028 ft | 169 kts | 248° |
| 2026-04-30 22:23 | 9.98674 | -84.22824 | 3281 ft | 171 kts | 249° |
| 2026-04-30 22:23 | 9.98260 | -84.24006 | 3702 ft | 188 kts | 250° |
| 2026-04-30 22:23 | 9.97815 | -84.25347 | 4102 ft | 209 kts | 251° |
| 2026-04-30 22:23 | 9.97358 | -84.26720 | 5001 ft | 196 kts | 249° |
| 2026-04-30 22:24 | 9.96931 | -84.27946 | 6032 ft | 174 kts | 251° |
| 2026-04-30 22:24 | 9.96527 | -84.29094 | 6677 ft | 178 kts | 259° |
| 2026-04-30 22:24 | 9.96566 | -84.30375 | 7016 ft | 189 kts | 284° |
| 2026-04-30 22:24 | 9.96801 | -84.31818 | 6995 ft | 227 kts | 279° |
| 2026-04-30 22:25 | 9.97010 | -84.33448 | 6998 ft | 234 kts | 278° |
| 2026-04-30 22:25 | 9.97191 | -84.35083 | 7010 ft | 233 kts | 278° |
| 2026-04-30 22:25 | 9.97353 | -84.36742 | 6984 ft | 237 kts | 277° |
| 2026-04-30 22:25 | 9.97503 | -84.38420 | 6961 ft | 241 kts | 277° |
| 2026-04-30 22:26 | 9.97769 | -84.41803 | 6934 ft | 236 kts | 276° |
| 2026-04-30 22:26 | 9.97804 | -84.43440 | 6935 ft | 235 kts | 260° |
| 2026-04-30 22:26 | 9.96994 | -84.44829 | 6916 ft | 229 kts | 218° |
| 2026-04-30 22:27 | 9.95562 | -84.45450 | 6906 ft | 225 kts | 186° |
| 2026-04-30 22:27 | 9.94023 | -84.45326 | 6846 ft | 222 kts | 157° |
| 2026-04-30 22:27 | 9.92095 | -84.43162 | 6689 ft | 210 kts | 100° |
| 2026-04-30 22:28 | 9.92311 | -84.40203 | 6311 ft | 214 kts | 77° |
| 2026-04-30 22:28 | 9.92663 | -84.38754 | 6067 ft | 208 kts | 67° |
| 2026-04-30 22:29 | 9.94210 | -84.34738 | 5989 ft | 201 kts | 66° |
| 2026-04-30 22:29 | 9.94705 | -84.33421 | 5977 ft | 198 kts | 66° |
| 2026-04-30 22:30 | 9.96722 | -84.28096 | 5230 ft | 215 kts | 68° |
| 2026-04-30 22:31 | 9.98273 | -84.23919 | 3047 ft | 194 kts | 72° |
| 2026-04-30 22:32 | 9.99372 | -84.20931 | 3018 ft | 99 kts | 68° |
| 2026-04-30 22:32 | 9.99652 | -84.20188 | 3035 ft | 34 kts | 70° |
| 2026-04-30 22:33 | 9.99851 | -84.20162 | 3033 ft | 0 kts | 338° |